Latest Weather Observations for Rhyll

IDV60901

Issued at 10:01 am EDT Friday 19 December 2014 (issued every 10 minutes, with the page automatically refreshed every 10 minutes)

About weather observations | Map of Melbourne area stations | Latest observations for Melbourne area | Other Formats
Station Details ID: 086373 Name: RHYLL Lat: -38.46 Lon: 145.31 Height: 13.4 m
Data from the previous 72 hours. | See also: Recent months at Rhyll
Date/Time
EDT
Tmp

°C
App
Tmp
°C
Dew
Point
°C
Rel
Hum
%
Delta-T

°C
Wind Press
QNH
hPa
Press
MSL
hPa
Rain
since
9 am
mm
Dir
 
Spd
km/h
Gust
km/h
Spd
kts
Gust
kts
19/10:00am 16.2 13.1 8.9 62 3.7 SW 15 28 8 15 1016.6 1016.6 0.0
19/09:30am 15.3 12.4 8.3 63 3.5 SW 13 24 7 13 1016.3 1016.3 0.0
19/09:00am 14.4 12.2 9.4 72 2.6 SSW 11 17 6 9 1016.1 1016.1 9.2
19/08:30am 15.0 13.2 9.6 70 2.8 SW 9 17 5 9 1015.7 1015.7 9.2
19/08:00am 13.0 10.4 9.3 78 1.9 S 13 20 7 11 1015.6 1015.6 9.2
19/07:30am 14.4 11.2 8.4 67 3.0 SW 15 26 8 14 1015.2 1015.2 9.2
19/07:00am 13.6 11.1 8.2 70 2.7 SW 11 20 6 11 1014.7 1014.7 9.2
19/06:30am 12.7 10.1 9.2 79 1.8 SW 13 22 7 12 1014.4 1014.4 9.2
19/05:30am 11.7 9.9 9.4 86 1.2 W 9 15 5 8 1013.9 1013.9 8.8
19/05:00am 12.4 11.3 9.8 84 1.3 WNW 6 13 3 7 1013.6 1013.6 8.2
19/04:30am 11.9 10.6 9.8 87 1.1 W 7 11 4 6 1013.2 1013.2 8.2
19/04:00am 12.7 11.3 9.7 82 1.5 W 7 13 4 7 1013.1 1013.1 8.2
19/03:30am 13.0 11.2 8.1 72 2.4 WSW 7 9 4 5 1012.8 1012.8 7.6
19/03:00am 12.6 10.9 8.3 75 2.1 WSW 7 13 4 7 1012.8 1012.8 7.6
19/02:30am 12.4 10.6 7.9 74 2.2 W 7 11 4 6 1012.8 1012.8 7.6
19/02:00am 12.8 11.0 8.1 73 2.3 WSW 7 11 4 6 1012.8 1012.8 7.6
19/01:30am 13.3 10.6 9.0 75 2.2 SW 13 22 7 12 1012.8 1012.8 7.6
19/01:00am 13.2 11.4 8.1 71 2.5 WSW 7 13 4 7 1012.8 1012.8 7.6
19/12:30am 13.4 11.5 9.1 75 2.2 W 9 15 5 8 1012.8 1012.8 7.6
19/12:00am 13.5 11.6 9.0 74 2.3 WSW 9 20 5 11 1012.7 1012.7 7.6
 
Date/Time
EDT
Tmp

°C
App
Tmp
°C
Dew
Point
°C
Rel
Hum
%
Delta-T

°C
Wind Press
QNH
hPa
Press
MSL
hPa
Rain
since
9 am
mm
Dir
 
Spd
km/h
Gust
km/h
Spd
kts
Gust
kts
18/11:30pm 13.5 11.5 8.8 73 2.4 WSW 9 15 5 8 1012.6 1012.6 7.6
18/11:00pm 13.8 11.6 9.3 74 2.3 WSW 11 19 6 10 1012.4 1012.4 7.6
18/10:30pm 13.6 11.8 9.5 76 2.1 WSW 9 17 5 9 1012.3 1012.3 7.6
18/10:00pm 13.4 11.3 9.8 79 1.8 WSW 11 17 6 9 1012.1 1012.1 7.6
18/09:30pm 13.5 11.3 10.9 84 1.4 WSW 13 22 7 12 1011.7 1011.7 7.6
18/09:00pm 14.6 12.5 9.8 73 2.5 WSW 11 19 6 10 1011.4 1011.4 6.8
18/08:30pm 15.2 13.5 9.8 70 2.8 WSW 9 19 5 10 1011.1 1011.1 6.8
18/08:00pm 15.2 13.8 10.8 75 2.3 W 9 15 5 8 1010.8 1010.8 6.8
18/07:30pm 15.9 14.6 11.3 74 2.5 W 9 20 5 11 1010.2 1010.2 6.8
18/07:00pm 15.4 13.3 11.0 75 2.3 W 13 26 7 14 1009.8 1009.7 6.8
18/06:30pm 15.9 14.6 12.5 80 1.9 W 11 24 6 13 1009.4 1009.3 6.8
18/06:00pm 15.0 14.4 13.4 90 0.9 WSW 9 19 5 10 1008.9 1008.8 6.8
18/05:30pm 13.5 12.2 12.4 93 0.6 W 11 19 6 10 1008.5 1008.4 6.8
18/05:00pm 13.4 12.0 12.3 93 0.6 WSW 11 22 6 12 1008.4 1008.3 5.0
18/04:30pm 13.2 10.9 11.8 91 0.7 WSW 15 26 8 14 1008.0 1007.9 2.6
18/04:00pm 14.4 11.0 12.6 89 1.0 WSW 22 37 12 20 1007.5 1007.4 1.0
18/03:30pm 18.5 15.7 11.3 63 3.9 SW 17 30 9 16 1006.3 1006.2 0.0
18/03:00pm 20.8 17.6 11.2 54 5.3 WSW 19 32 10 17 1005.6 1005.5 0.0
18/02:30pm 20.5 17.0 8.8 47 6.2 WSW 17 28 9 15 1005.5 1005.4 0.0
18/02:00pm 20.6 18.0 9.2 48 6.1 WSW 13 22 7 12 1005.5 1005.4 0.0
18/01:30pm 20.0 16.5 8.7 48 5.9 WSW 17 33 9 18 1005.7 1005.6 0.0
18/01:00pm 19.4 16.8 9.3 52 5.3 WSW 13 28 7 15 1005.7 1005.6 0.0
18/12:30pm 19.5 16.0 8.8 50 5.6 W 17 33 9 18 1006.0 1005.9 0.0
18/12:00pm 18.9 15.4 8.8 52 5.3 W 17 39 9 21 1006.0 1005.9 0.0
18/11:30am 19.5 16.2 9.4 52 5.3 W 17 32 9 17 1005.8 1005.7 0.0
18/11:00am 19.9 17.6 10.6 55 5.1 WNW 13 24 7 13 1005.4 1005.3 0.0
18/10:30am 19.4 17.4 11.4 60 4.4 WNW 13 26 7 14 1005.4 1005.3 0.0
18/10:00am 19.4 17.2 10.9 58 4.6 NW 13 22 7 12 1005.4 1005.3 0.0
18/09:30am 18.6 16.3 13.0 70 3.2 NNW 17 22 9 12 1005.4 1005.3 0.0
18/09:00am 16.5 13.5 12.5 77 2.2 NNW 20 24 11 13 1005.3 1005.2 0.0
18/08:30am 15.8 13.2 12.0 78 2.1 NNW 17 24 9 13 1005.4 1005.3 0.0
18/08:00am 14.6 11.0 10.4 76 2.2 N 20 24 11 13 1005.6 1005.5 0.0
18/07:30am 13.7 11.7 10.1 79 1.9 NNE 11 17 6 9 1005.3 1005.2 0.0
18/07:00am 13.4 10.8 10.8 84 1.4 NNE 15 20 8 11 1005.3 1005.2 0.0
18/06:30am 13.4 9.9 10.8 84 1.4 NE 20 24 11 13 1005.1 1005.0 0.0
18/06:00am 13.6 9.2 10.4 81 1.7 NE 24 28 13 15 1005.2 1005.1 0.0
18/05:30am 13.2 10.0 9.8 80 1.7 NNE 17 20 9 11 1005.4 1005.3 0.0
18/05:00am 13.3 10.4 9.5 78 1.9 NE 15 19 8 10 1005.4 1005.3 0.0
18/04:30am 13.7 11.8 9.0 73 2.4 NNE 9 13 5 7 1005.3 1005.2 0.0
18/04:00am 13.4 11.7 9.8 79 1.9 NE 9 15 5 8 1005.3 1005.2 0.0
18/03:30am 12.5 11.6 9.3 81 1.6 ESE 4 6 2 3 1005.5 1005.4 0.0
18/03:00am 12.7 11.4 9.3 80 1.7 E 6 9 3 5 1005.8 1005.7 0.0
18/02:30am 12.9 10.7 9.2 78 1.9 E 11 17 6 9 1005.8 1005.7 0.0
18/02:00am 13.3 10.2 9.0 75 2.2 E 15 19 8 10 1006.0 1005.9 0.0
18/01:30am 14.0 10.6 9.2 73 2.4 E 17 24 9 13 1006.5 1006.4 0.0
18/01:00am 14.5 10.8 9.3 71 2.7 E 19 24 10 13 1006.9 1006.8 0.0
18/12:30am 14.8 10.2 8.1 64 3.4 E 22 26 12 14 1007.3 1007.2 0.0
18/12:00am 14.3 9.6 7.8 65 3.2 E 22 28 12 15 1007.8 1007.7 0.0
 
Date/Time
EDT
Tmp

°C
App
Tmp
°C
Dew
Point
°C
Rel
Hum
%
Delta-T

°C
Wind Press
QNH
hPa
Press
MSL
hPa
Rain
since
9 am
mm
Dir
 
Spd
km/h
Gust
km/h
Spd
kts
Gust
kts
17/11:30pm 14.6 10.7 8.5 67 3.1 E 19 24 10 13 1008.2 1008.1 0.0
17/11:00pm 14.6 11.2 9.0 69 2.9 ESE 17 20 9 11 1008.3 1008.2 0.0
17/10:30pm 14.1 10.1 8.9 71 2.6 ENE 20 28 11 15 1008.6 1008.5 0.0
17/10:00pm 14.9 11.1 9.1 68 3.0 ESE 19 22 10 12 1008.8 1008.7 0.0
17/09:30pm 15.1 12.5 9.2 68 3.0 ESE 13 20 7 11 1008.8 1008.7 0.0
17/09:00pm 14.9 12.7 7.9 63 3.5 SE 9 11 5 6 1008.6 1008.5 0.0
17/08:30pm 15.0 13.0 8.5 65 3.3 SSE 9 13 5 7 1008.8 1008.7 0.0
17/08:00pm 16.1 14.5 8.6 61 3.8 S 7 11 4 6 1008.8 1008.7 0.0
17/07:30pm 17.0 15.0 8.7 58 4.3 S 9 15 5 8 1008.7 1008.6 0.0
17/07:00pm 17.5 15.8 9.9 61 4.0 S 9 15 5 8 1008.6 1008.5 0.0
17/06:30pm 17.9 16.1 9.3 57 4.5 S 9 17 5 9 1008.5 1008.4 0.0
17/06:00pm 18.5 17.0 9.3 55 4.8 S 7 13 4 7 1008.4 1008.3 0.0
17/05:30pm 18.4 16.6 9.5 56 4.7 S 9 17 5 9 1008.4 1008.3 0.0
17/05:00pm 18.8 16.9 9.0 53 5.1 S 9 17 5 9 1008.6 1008.5 0.0
17/04:30pm 18.8 16.6 7.9 49 5.6 S 9 19 5 10 1008.6 1008.5 0.0
17/04:00pm 18.9 16.4 8.0 49 5.6 S 11 22 6 12 1008.8 1008.7 0.0
17/03:30pm 17.9 15.4 8.2 53 5.0 SSW 11 20 6 11 1009.1 1009.0 0.0
17/03:00pm 18.5 15.9 7.6 49 5.5 S 11 22 6 12 1009.1 1009.0 0.0
17/02:30pm 19.0 15.9 7.4 47 5.9 S 13 22 7 12 1009.2 1009.1 0.0
17/02:00pm 18.9 15.8 8.8 52 5.3 SSW 15 26 8 14 1009.3 1009.2 0.0
17/01:30pm 18.1 15.9 9.5 57 4.5 SSW 11 24 6 13 1009.5 1009.4 0.0
17/01:00pm 17.6 14.1 7.1 50 5.3 SW 15 26 8 14 1009.5 1009.4 0.0
17/12:30pm 17.0 13.9 7.4 53 4.8 WSW 13 22 7 12 1009.5 1009.4 0.0
17/12:00pm 16.8 13.7 8.8 59 4.1 WSW 15 24 8 13 1009.4 1009.3 0.0
17/11:30am 16.1 13.5 7.6 57 4.2 WSW 11 17 6 9 1009.2 1009.1 0.0
17/11:00am 15.9 13.4 8.4 61 3.8 WSW 11 20 6 11 1009.1 1009.0 0.0
17/10:30am 15.5 13.0 8.3 62 3.6 W 11 19 6 10 1009.1 1009.0 0.0
17/10:00am 15.7 12.9 7.0 56 4.3 WSW 11 17 6 9 1009.0 1008.9 0.0
17/09:30am 16.4 12.9 7.1 54 4.6 WSW 15 28 8 15 1008.8 1008.7 0.0
17/09:00am 16.3 13.0 6.4 52 4.8 WSW 13 26 7 14 1008.4 1008.3 0.0
17/08:30am 15.7 12.0 6.4 54 4.5 W 15 26 8 14 1008.1 1008.0 0.0
17/08:00am 15.1 12.0 7.2 59 3.9 WSW 13 24 7 13 1007.9 1007.8 0.0
17/07:30am 13.7 12.3 9.7 77 2.1 WNW 7 13 4 7 1007.6 1007.5 0.0
17/07:00am 13.1 11.7 9.7 80 1.7 W 7 11 4 6 1007.1 1007.0 0.0
17/06:30am 12.4 10.7 8.5 77 1.9 W 7 13 4 7 1006.7 1006.6 0.0
17/06:00am 12.0 10.1 6.5 69 2.6 W 6 11 3 6 1006.5 1006.4 0.0
17/05:30am 12.0 10.3 7.7 75 2.1 W 6 9 3 5 1006.1 1006.0 0.0
17/05:00am 12.5 10.7 7.8 73 2.3 W 7 9 4 5 1005.7 1005.6 0.0
17/04:30am 12.8 11.2 8.7 76 2.0 W 7 13 4 7 1005.4 1005.3 0.0
17/04:00am 12.9 10.6 7.6 70 2.6 WSW 9 20 5 11 1005.3 1005.2 0.0
17/03:30am 12.9 8.8 8.0 72 2.4 SW 19 32 10 17 1005.1 1005.0 0.0
17/03:00am 12.8 11.0 9.4 80 1.7 WNW 9 17 5 9 1005.0 1004.9 0.0
17/02:30am 13.2 11.4 9.3 77 2.0 W 9 19 5 10 1004.9 1004.8 0.0
17/02:00am 14.1 11.4 7.2 63 3.4 WSW 11 20 6 11 1004.6 1004.5 0.0
17/01:30am 13.6 10.7 6.7 63 3.3 WSW 11 22 6 12 1004.6 1004.5 0.0
17/01:00am 14.0 10.5 7.1 63 3.4 WSW 15 30 8 16 1004.4 1004.3 0.0
17/12:30am 13.7 10.8 8.1 69 2.8 W 13 20 7 11 1004.8 1004.7 0.0
17/12:00am 13.4 10.5 8.0 70 2.7 WSW 13 20 7 11 1004.9 1004.8 0.0
 
Date/Time
EDT
Tmp

°C
App
Tmp
°C
Dew
Point
°C
Rel
Hum
%
Delta-T

°C
Wind Press
QNH
hPa
Press
MSL
hPa
Rain
since
9 am
mm
Dir
 
Spd
km/h
Gust
km/h
Spd
kts
Gust
kts
16/11:30pm 14.1 10.8 7.9 66 3.1 W 15 28 8 15 1004.7 1004.6 0.0
16/11:00pm 14.0 10.6 7.8 66 3.1 WSW 15 28 8 15 1004.6 1004.5 0.0
16/10:30pm 13.9 9.6 7.7 66 3.1 WSW 20 32 11 17 1004.2 1004.1 0.0
16/10:00pm 15.0 10.8 8.3 64 3.4 W 20 35 11 19 1003.9 1003.8 0.0
16/09:30pm 14.9 10.6 7.9 63 3.5 WSW 20 37 11 20 1003.2 1003.1 0.0
16/09:00pm 15.7 11.3 7.5 58 4.1 W 20 37 11 20 1002.3 1002.2 0.0
16/08:30pm 15.8 10.7 7.6 58 4.1 W 24 48 13 26 1001.6 1001.5 0.0
16/08:00pm 16.4 10.6 7.9 57 4.3 W 28 52 15 28 1000.7 1000.6 0.0
16/07:56pm 16.6 10.8 7.8 56 4.4 W 28 52 15 28 1000.6 1000.5 0.0
16/07:30pm 17.1 12.6 10.0 63 3.7 W 24 46 13 25 999.7 999.6 0.0
16/07:00pm 16.5 12.0 9.9 65 3.5 W 24 48 13 26 998.9 998.8 0.0
16/06:44pm 16.6 11.1 9.3 62 3.8 W 28 56 15 30 998.3 998.2 0.0
16/06:30pm 16.2 11.3 10.1 67 3.2 W 26 50 14 27 997.8 997.7 0.0
16/06:00pm 14.7 11.4 12.9 89 1.0 WSW 22 41 12 22 997.0 996.9 0.0
16/05:30pm 17.0 11.5 11.7 71 2.9 W 32 63 17 34 996.0 995.9 0.0
16/05:00pm 18.7 13.5 12.9 69 3.3 SW 32 59 17 32 994.3 994.2 0.0
16/04:56pm 19.2 14.9 13.2 68 3.4 SW 28 52 15 28 994.5 994.4 0.0
16/04:30pm 18.3 15.1 13.0 71 3.0 SW 22 43 12 23 993.9 993.8 0.0
16/04:00pm 18.3 15.8 13.4 73 2.8 SW 19 30 10 16 993.0 992.9 0.0
16/03:33pm 18.0 13.9 13.7 76 2.4 SW 28 46 15 25 992.9 992.8 0.0
16/03:30pm 18.4 14.0 14.1 76 2.5 SW 30 46 16 25 992.8 992.7 0.0
16/03:02pm 19.3 15.7 15.2 77 2.4 SSW 28 46 15 25 992.8 992.7 0.0
16/03:00pm 19.4 16.2 15.3 77 2.4 SSW 26 43 14 23 992.7 992.6 0.0
16/02:30pm 22.2 20.9 15.8 67 3.8 SSW 17 30 9 16 992.3 992.2 0.0
16/02:00pm 24.9 26.3 16.3 59 5.3 NE 4 9 2 5 992.8 992.7 0.0
16/01:30pm 25.1 25.9 19.0 69 3.9 E 13 15 7 8 992.8 992.7 0.0
16/01:00pm 22.8 23.8 16.8 69 3.7 SE 7 13 4 7 993.9 993.8 0.0
16/12:30pm 23.5 24.8 17.5 69 3.7 SE 7 13 4 7 995.1 995.0 0.0
16/12:00pm 21.4 22.1 16.1 72 3.2 N 7 13 4 7 995.5 995.4 0.0
16/11:30am 20.3 20.3 15.3 73 3.0 NNW 9 13 5 7 995.7 995.6 0.0
16/11:00am 19.8 19.7 15.0 74 2.8 NW 9 13 5 7 995.8 995.7 0.0
16/10:30am 19.7 19.8 15.4 76 2.5 WNW 9 20 5 11 995.9 995.8 0.0

Latest Capital City Observations: Canberra | Sydney | Melbourne | Brisbane | Adelaide | Perth | Hobart | Darwin

Other Formats:

Comma delimited format used in spreadsheet applications
http://www.bom.gov.au/fwo/IDV60901/IDV60901.94892.axf

JavaScript Object Notation format (JSON) in row-major order
http://www.bom.gov.au/fwo/IDV60901/IDV60901.94892.json